createdAt,value
2022-08-22T00:02:09.077Z,101580
2022-08-22T00:12:08.405Z,101570
2022-08-22T00:22:08.420Z,101580
2022-08-22T00:27:08.404Z,101580
2022-08-22T00:32:08.422Z,101570
2022-08-22T00:37:08.413Z,101580
2022-08-22T00:47:08.428Z,101580
2022-08-22T00:52:08.427Z,101580
2022-08-22T00:57:08.424Z,101580
2022-08-22T01:02:08.428Z,101580
2022-08-22T01:12:08.641Z,101590
2022-08-22T01:17:08.435Z,101590
2022-08-22T01:27:08.431Z,101590
2022-08-22T01:32:08.459Z,101590
2022-08-22T01:37:08.441Z,101590
2022-08-22T01:42:08.450Z,101590
2022-08-22T01:47:08.448Z,101590
2022-08-22T01:57:08.541Z,101600
2022-08-22T02:02:08.453Z,101600
2022-08-22T02:07:08.472Z,101600
2022-08-22T02:12:21.481Z,101590
2022-08-22T02:27:08.464Z,101590
2022-08-22T02:32:08.467Z,101590
2022-08-22T02:37:08.476Z,101580
2022-08-22T02:42:08.468Z,101580
2022-08-22T02:47:08.470Z,101580
2022-08-22T02:57:14.318Z,101570
2022-08-22T03:02:08.469Z,101570
2022-08-22T03:07:08.478Z,101570
2022-08-22T03:12:08.484Z,101570
2022-08-22T03:17:08.493Z,101570
2022-08-22T03:27:08.501Z,101560
2022-08-22T03:32:08.488Z,101560
2022-08-22T03:37:08.497Z,101560
2022-08-22T03:42:08.523Z,101550
2022-08-22T03:47:08.497Z,101550
2022-08-22T03:52:08.514Z,101540
2022-08-22T04:02:41.867Z,101540
2022-08-22T04:07:28.102Z,101540
2022-08-22T04:12:08.504Z,101540
2022-08-22T04:17:08.521Z,101550
2022-08-22T04:22:08.507Z,101540
2022-08-22T04:27:08.520Z,101550
2022-08-22T04:42:31.251Z,101570
2022-08-22T04:47:08.520Z,101570
2022-08-22T04:57:08.535Z,101570
2022-08-22T05:02:08.799Z,101580
2022-08-22T05:12:08.536Z,101570
2022-08-22T05:17:08.538Z,101570
2022-08-22T05:22:08.536Z,101560
2022-08-22T05:32:08.556Z,101570
2022-08-22T05:37:08.536Z,101570
2022-08-22T05:42:08.535Z,101580
2022-08-22T05:47:08.545Z,101580
2022-08-22T05:52:08.770Z,101580
2022-08-22T05:57:08.565Z,101580
2022-08-22T06:02:08.579Z,101590
2022-08-22T06:17:08.546Z,101590
2022-08-22T06:22:08.561Z,101590
2022-08-22T06:27:08.562Z,101600
2022-08-22T06:37:08.587Z,101620
2022-08-22T06:42:10.378Z,101620
2022-08-22T06:47:08.574Z,101620
2022-08-22T06:52:08.578Z,101620
2022-08-22T06:57:08.573Z,101620
2022-08-22T07:02:08.677Z,101620
2022-08-22T07:07:08.584Z,101620
2022-08-22T07:12:08.577Z,101620
2022-08-22T07:17:08.588Z,101620
2022-08-22T07:22:08.581Z,101630
2022-08-22T07:27:08.586Z,101630
2022-08-22T07:32:08.590Z,101620
2022-08-22T07:37:08.591Z,101620
2022-08-22T07:42:08.592Z,101630
2022-08-22T07:52:08.594Z,101620
2022-08-22T08:02:08.612Z,101620
2022-08-22T08:07:08.832Z,101610
2022-08-22T08:12:08.610Z,101610
2022-08-22T08:17:08.605Z,101600
2022-08-22T08:22:08.609Z,101600
2022-08-22T08:32:08.687Z,101590
2022-08-22T08:42:08.611Z,101580
2022-08-22T08:47:08.616Z,101570
2022-08-22T08:52:08.623Z,101570
2022-08-22T08:57:08.630Z,101570
2022-08-22T09:02:08.629Z,101560
2022-08-22T09:07:08.618Z,101570
2022-08-22T09:17:08.630Z,101570
2022-08-22T09:22:14.352Z,101560
2022-08-22T09:27:08.971Z,101560
2022-08-22T09:32:13.160Z,101560
2022-08-22T09:37:08.637Z,101560
2022-08-22T09:42:08.654Z,101550
2022-08-22T09:47:08.639Z,101550
2022-08-22T09:52:15.174Z,101550
2022-08-22T09:57:08.661Z,101540
2022-08-22T10:02:15.545Z,101530
2022-08-22T10:07:11.875Z,101530
2022-08-22T10:12:12.387Z,101530
2022-08-22T10:17:08.658Z,101540
2022-08-22T10:22:08.661Z,101540
2022-08-22T10:27:08.653Z,101530
2022-08-22T10:32:10.782Z,101510
2022-08-22T10:37:08.655Z,101510
2022-08-22T10:42:08.668Z,101500
2022-08-22T10:47:08.666Z,101500
2022-08-22T10:52:15.816Z,101500
2022-08-22T10:57:09.460Z,101500
2022-08-22T11:02:08.704Z,101500
2022-08-22T11:07:09.323Z,101500
2022-08-22T11:12:08.673Z,101490
2022-08-22T11:17:28.921Z,101480
2022-08-22T11:22:10.035Z,101490
2022-08-22T11:27:08.681Z,101470
2022-08-22T11:32:08.681Z,101470
2022-08-22T11:37:10.935Z,101470
2022-08-22T11:42:08.694Z,101470
2022-08-22T11:47:08.692Z,101470
2022-08-22T11:52:08.703Z,101470
2022-08-22T11:57:08.691Z,101450
2022-08-22T12:02:08.873Z,101460
2022-08-22T12:07:08.698Z,101450
2022-08-22T12:17:08.790Z,101450
2022-08-22T12:22:08.711Z,101440
2022-08-22T12:27:08.727Z,101450
2022-08-22T12:32:10.232Z,101440
2022-08-22T12:37:08.770Z,101440
2022-08-22T12:42:08.718Z,101440
2022-08-22T12:47:09.143Z,101440
2022-08-22T12:52:08.720Z,101430
2022-08-22T12:57:10.470Z,101430
2022-08-22T13:02:08.726Z,101430
2022-08-22T13:07:08.720Z,101420
2022-08-22T13:12:08.728Z,101430
2022-08-22T13:27:08.751Z,101420
2022-08-22T13:32:08.735Z,101410
2022-08-22T13:42:14.257Z,101400
2022-08-22T13:47:14.351Z,101390
2022-08-22T13:52:14.548Z,101390
2022-08-22T13:57:08.764Z,101390
2022-08-22T14:02:08.756Z,101390
2022-08-22T14:07:08.761Z,101390
2022-08-22T14:12:12.190Z,101390
2022-08-22T14:22:08.759Z,101390
2022-08-22T14:27:08.769Z,101390
2022-08-22T14:32:09.420Z,101380
2022-08-22T14:52:08.961Z,101370
2022-08-22T14:57:10.297Z,101370
2022-08-22T15:02:08.844Z,101360
2022-08-22T15:12:08.790Z,101360
2022-08-22T15:17:08.789Z,101350
2022-08-22T15:22:08.783Z,101350
2022-08-22T15:27:08.800Z,101350
2022-08-22T15:32:08.802Z,101340
2022-08-22T15:37:14.273Z,101340
2022-08-22T15:42:09.042Z,101330
2022-08-22T15:47:10.882Z,101320
2022-08-22T15:57:08.812Z,101320
2022-08-22T16:02:08.843Z,101320
2022-08-22T16:07:09.429Z,101320
2022-08-22T16:12:08.810Z,101320
2022-08-22T16:17:08.801Z,101320
2022-08-22T16:22:08.812Z,101320
2022-08-22T16:27:08.813Z,101310
2022-08-22T16:32:08.824Z,101320
2022-08-22T16:37:08.846Z,101310
2022-08-22T16:42:08.831Z,101310
2022-08-22T16:47:08.828Z,101310
2022-08-22T16:52:08.830Z,101300
2022-08-22T16:57:08.824Z,101300
2022-08-22T17:02:08.840Z,101300
2022-08-22T17:12:08.849Z,101290
2022-08-22T17:22:08.836Z,101290
2022-08-22T17:27:08.844Z,101280
2022-08-22T17:32:08.863Z,101280
2022-08-22T17:37:08.851Z,101290
2022-08-22T17:47:08.857Z,101280
2022-08-22T17:52:08.853Z,101290
2022-08-22T17:57:08.866Z,101290
2022-08-22T18:02:08.865Z,101290
2022-08-22T18:07:08.853Z,101300
2022-08-22T18:12:08.896Z,101300
2022-08-22T18:17:08.876Z,101300
2022-08-22T18:22:08.882Z,101300
2022-08-22T18:32:08.892Z,101310
2022-08-22T18:42:08.882Z,101320
2022-08-22T18:47:08.879Z,101320
2022-08-22T18:52:08.880Z,101330
2022-08-22T18:57:08.891Z,101330
2022-08-22T19:02:08.892Z,101340
2022-08-22T19:07:08.904Z,101350
2022-08-22T19:12:08.906Z,101360
2022-08-22T19:22:08.904Z,101360
2022-08-22T19:37:08.914Z,101370
2022-08-22T19:42:08.901Z,101370
2022-08-22T19:47:08.913Z,101380
2022-08-22T19:57:10.217Z,101390
2022-08-22T20:02:08.911Z,101380
2022-08-22T20:12:13.247Z,101380
2022-08-22T20:17:08.938Z,101380
2022-08-22T20:22:08.942Z,101380
2022-08-22T20:27:14.491Z,101380
2022-08-22T20:37:31.978Z,101370
2022-08-22T20:42:08.927Z,101380
2022-08-22T20:52:08.940Z,101370
2022-08-22T20:57:08.939Z,101360
2022-08-22T21:02:08.942Z,101360
2022-08-22T21:07:08.942Z,101360
2022-08-22T21:12:08.942Z,101360
2022-08-22T21:17:08.956Z,101360
2022-08-22T21:22:08.967Z,101350
2022-08-22T21:27:08.961Z,101360
2022-08-22T21:52:08.956Z,101350
2022-08-22T22:07:08.974Z,101350
2022-08-22T22:12:08.979Z,101350
2022-08-22T22:22:08.973Z,101350
2022-08-22T22:27:11.702Z,101350
2022-08-22T22:32:08.991Z,101340
2022-08-22T22:37:08.986Z,101350
2022-08-22T22:47:08.992Z,101350
2022-08-22T22:52:08.989Z,101350
2022-08-22T22:57:12.826Z,101350
2022-08-22T23:12:08.993Z,101350
2022-08-22T23:17:08.996Z,101360
2022-08-22T23:22:09.011Z,101350
2022-08-22T23:32:09.009Z,101360
2022-08-22T23:42:09.042Z,101360
2022-08-22T23:52:09.025Z,101360
2022-08-22T23:57:11.811Z,101350
